Time;durP1;ratioP1;P1;durP2;ratioP2;P2;SDS_P1;SDS_P2;PMS_P1;PMS_P2;Temp;Humidity;BMP_temperature;BMP_pressure;BME280_temperature;BME280_humidity;BME280_pressure;Samples;Min_cycle;Max_cycle;Signal;HPM_P1;HPM_P2
2022/09/14 00:01:27;;;;;;;5.10;1.50;;;;;;;;;;4933856;29;20230;-61
2022/09/14 00:03:54;;;;;;;7.73;1.57;;;;;;;;;;4934887;29;20202;-60
2022/09/14 00:06:21;;;;;;;10.40;1.60;;;;;;;;;;4933298;29;20317;-60
2022/09/14 00:08:51;;;;;;;6.77;1.90;;;;;;;;;;4934917;29;20191;-61
2022/09/14 00:11:18;;;;;;;6.20;1.60;;;;;;;;;;4935069;29;20190;-60
2022/09/14 00:13:45;;;;;;;3.57;1.40;;;;;;;;;;4934652;29;20207;-61
2022/09/14 00:16:13;;;;;;;9.33;1.63;;;;;;;;;;4934141;29;20266;-62
2022/09/14 00:18:40;;;;;;;6.03;1.90;;;;;;;;;;4934694;29;20992;-61
2022/09/14 00:21:07;;;;;;;7.57;1.33;;;;;;;;;;4934667;29;20194;-60
2022/09/14 00:23:34;;;;;;;7.57;2.03;;;;;;;;;;4934587;29;20650;-61
2022/09/14 00:26:02;;;;;;;6.93;1.60;;;;;;;;;;4934300;29;20216;-61
2022/09/14 00:28:28;;;;;;;5.47;1.37;;;;;;;;;;4934390;28;20199;-61
2022/09/14 00:30:55;;;;;;;6.03;1.63;;;;;;;;;;4934764;29;20574;-61
2022/09/14 00:33:22;;;;;;;5.50;1.87;;;;;;;;;;4934216;29;20689;-61
2022/09/14 00:35:48;;;;;;;5.37;1.30;;;;;;;;;;4934364;29;20198;-61
2022/09/14 00:38:15;;;;;;;4.43;1.20;;;;;;;;;;4934322;29;20207;-61
2022/09/14 00:40:42;;;;;;;4.87;1.30;;;;;;;;;;4934151;29;20234;-61
2022/09/14 00:43:11;;;;;;;6.10;1.60;;;;;;;;;;4933617;29;20594;-61
2022/09/14 00:45:38;;;;;;;4.40;1.30;;;;;;;;;;4932086;29;20231;-61
2022/09/14 00:48:05;;;;;;;6.63;1.60;;;;;;;;;;4933852;29;20203;-61
2022/09/14 00:50:31;;;;;;;5.90;1.50;;;;;;;;;;4932131;29;20580;-60
2022/09/14 00:52:58;;;;;;;4.23;1.30;;;;;;;;;;4934007;29;20202;-61
2022/09/14 00:55:25;;;;;;;3.70;1.30;;;;;;;;;;4933998;29;20245;-61
2022/09/14 00:57:52;;;;;;;8.20;1.33;;;;;;;;;;4934037;29;20191;-61
2022/09/14 01:00:20;;;;;;;5.93;1.40;;;;;;;;;;4933533;29;20275;-60
2022/09/14 01:02:47;;;;;;;6.13;1.30;;;;;;;;;;4931638;29;20198;-61
2022/09/14 01:05:13;;;;;;;3.17;1.07;;;;;;;;;;4933871;29;20202;-60
2022/09/14 01:07:41;;;;;;;4.40;1.20;;;;;;;;;;4931202;29;20233;-61
2022/09/14 01:10:27;;;;;;;6.67;1.30;;;;;;;;;;4933326;29;20205;-61
2022/09/14 01:13:08;;;;;;;6.00;1.43;;;;;;;;;;4922666;29;20225;-61
2022/09/14 01:15:38;;;;;;;4.27;1.10;;;;;;;;;;4933767;29;20202;-60
2022/09/14 01:18:11;;;;;;;4.20;1.20;;;;;;;;;;4933436;29;20199;-60
2022/09/14 01:20:47;;;;;;;6.13;1.23;;;;;;;;;;4933569;28;20280;-61
2022/09/14 01:23:28;;;;;;;3.30;1.03;;;;;;;;;;4933000;29;20225;-60
2022/09/14 01:25:58;;;;;;;8.30;1.63;;;;;;;;;;4948379;29;20191;-61
2022/09/14 01:28:40;;;;;;;4.13;1.47;;;;;;;;;;4933544;29;20191;-61
2022/09/14 01:31:08;;;;;;;5.63;1.00;;;;;;;;;;4948474;29;20203;-61
2022/09/14 01:33:40;;;;;;;3.60;1.10;;;;;;;;;;4933697;29;20737;-61
2022/09/14 01:36:06;;;;;;;5.77;1.20;;;;;;;;;;4948372;29;20281;-61
2022/09/14 01:38:33;;;;;;;6.93;1.30;;;;;;;;;;4948060;29;20206;-61
2022/09/14 01:41:00;;;;;;;5.43;1.40;;;;;;;;;;4932743;29;20190;-61
2022/09/14 01:43:33;;;;;;;5.40;1.13;;;;;;;;;;4948072;29;20203;-61
2022/09/14 01:46:19;;;;;;;7.87;1.00;;;;;;;;;;4933458;29;20264;-61
2022/09/14 01:48:46;;;;;;;8.93;1.30;;;;;;;;;;4933255;29;20245;-61
2022/09/14 01:51:14;;;;;;;6.77;1.07;;;;;;;;;;4933362;29;20195;-60
2022/09/14 01:53:42;;;;;;;6.07;1.50;;;;;;;;;;4947974;29;20849;-60
2022/09/14 01:56:14;;;;;;;7.40;1.10;;;;;;;;;;4933332;29;20202;-61
2022/09/14 01:58:49;;;;;;;4.53;1.23;;;;;;;;;;4947694;29;20222;-61
2022/09/14 02:01:18;;;;;;;2.57;1.10;;;;;;;;;;4947305;29;20303;-61
2022/09/14 02:03:49;;;;;;;4.87;1.60;;;;;;;;;;4931889;29;20191;-61
2022/09/14 02:06:34;;;;;;;6.00;1.10;;;;;;;;;;4946355;29;20317;-61
2022/09/14 02:09:01;;;;;;;4.83;1.20;;;;;;;;;;4948729;29;20852;-61
2022/09/14 02:11:27;;;;;;;5.97;1.20;;;;;;;;;;4947908;29;20277;-61
2022/09/14 02:13:54;;;;;;;7.50;1.20;;;;;;;;;;4933186;29;20605;-61
2022/09/14 02:16:21;;;;;;;6.27;1.33;;;;;;;;;;4932990;29;20670;-61
2022/09/14 02:18:48;;;;;;;4.43;0.83;;;;;;;;;;4933136;29;20250;-60
2022/09/14 02:21:19;;;;;;;2.80;1.10;;;;;;;;;;4935484;29;20205;-63
2022/09/14 02:23:47;;;;;;;2.87;1.30;;;;;;;;;;4950700;28;20194;-61
2022/09/14 02:26:14;;;;;;;3.90;1.10;;;;;;;;;;4936796;29;20729;-62
2022/09/14 02:28:41;;;;;;;6.57;1.33;;;;;;;;;;4936763;29;20194;-61
2022/09/14 02:31:11;;;;;;;5.35;1.50;;;;;;;;;;4936282;29;20433;-61
2022/09/14 02:33:44;;;;;;;5.27;1.20;;;;;;;;;;4936672;29;20194;-61
2022/09/14 02:36:43;;;;;;;5.53;1.23;;;;;;;;;;4936914;29;20742;-61
2022/09/14 02:39:28;;;;;;;6.87;1.30;;;;;;;;;;4924695;29;20222;-61
2022/09/14 02:42:08;;;;;;;4.87;1.30;;;;;;;;;;4936830;29;20222;-60
2022/09/14 02:44:44;;;;;;;5.53;1.30;;;;;;;;;;4935763;29;20191;-60
2022/09/14 02:47:32;;;;;;;4.47;1.10;;;;;;;;;;4936534;29;20206;-61
2022/09/14 02:50:06;;;;;;;4.70;1.50;;;;;;;;;;4951063;29;20642;-60
2022/09/14 02:52:35;;;;;;;4.97;1.07;;;;;;;;;;4923197;29;20581;-61
2022/09/14 02:55:04;;;;;;;6.77;1.47;;;;;;;;;;4936037;29;20194;-60
2022/09/14 02:57:31;;;;;;;9.43;1.57;;;;;;;;;;4930801;29;20252;-60
2022/09/14 02:59:57;;;;;;;4.13;1.30;;;;;;;;;;4935990;29;20218;-60
2022/09/14 03:02:24;;;;;;;8.20;1.73;;;;;;;;;;4935935;29;20201;-60
2022/09/14 03:04:51;;;;;;;7.87;1.17;;;;;;;;;;4935624;29;20194;-60
2022/09/14 03:07:18;;;;;;;4.73;1.33;;;;;;;;;;4931253;29;20237;-61
2022/09/14 03:09:45;;;;;;;6.57;1.10;;;;;;;;;;4925693;29;20223;-61
2022/09/14 03:12:12;;;;;;;5.10;1.27;;;;;;;;;;4926599;29;20259;-61
2022/09/14 03:14:38;;;;;;;5.00;1.60;;;;;;;;;;4928464;29;20195;-61
2022/09/14 03:17:05;;;;;;;9.10;1.50;;;;;;;;;;4928924;29;20203;-62
2022/09/14 03:19:32;;;;;;;4.27;1.63;;;;;;;;;;4928307;29;20249;-61
2022/09/14 03:21:59;;;;;;;7.50;1.43;;;;;;;;;;4928308;29;20219;-61
2022/09/14 03:24:26;;;;;;;4.03;1.20;;;;;;;;;;4928336;28;20234;-61
2022/09/14 03:26:52;;;;;;;6.27;1.27;;;;;;;;;;4925751;29;20202;-61
2022/09/14 03:29:19;;;;;;;6.50;1.67;;;;;;;;;;4932999;29;20539;-60
2022/09/14 03:31:46;;;;;;;5.87;1.47;;;;;;;;;;4932016;29;20214;-61
2022/09/14 03:34:13;;;;;;;5.17;1.57;;;;;;;;;;4930872;29;20538;-61
2022/09/14 03:36:40;;;;;;;5.07;1.40;;;;;;;;;;4932132;29;20191;-61
2022/09/14 03:39:08;;;;;;;4.50;1.20;;;;;;;;;;4933008;29;20219;-61
2022/09/14 03:41:34;;;;;;;7.43;2.00;;;;;;;;;;4934393;29;20205;-60
2022/09/14 03:44:01;;;;;;;7.27;1.67;;;;;;;;;;4934181;28;20235;-60
2022/09/14 03:46:28;;;;;;;7.20;1.57;;;;;;;;;;4933799;29;20203;-60
2022/09/14 03:48:54;;;;;;;6.93;1.50;;;;;;;;;;4935294;29;20214;-60
2022/09/14 03:51:39;;;;;;;5.57;1.30;;;;;;;;;;4935231;29;20194;-60
2022/09/14 03:54:05;;;;;;;7.93;1.50;;;;;;;;;;4935443;29;20197;-60
2022/09/14 03:56:32;;;;;;;4.40;1.40;;;;;;;;;;4934251;29;20199;-60
2022/09/14 03:58:59;;;;;;;6.07;1.40;;;;;;;;;;4922746;29;20206;-60
2022/09/14 04:01:26;;;;;;;4.43;1.00;;;;;;;;;;4927981;29;20190;-61
2022/09/14 04:03:52;;;;;;;6.83;1.50;;;;;;;;;;4928279;29;20266;-61
2022/09/14 04:06:19;;;;;;;6.43;1.73;;;;;;;;;;4928082;29;20652;-60
2022/09/14 04:08:46;;;;;;;6.23;1.27;;;;;;;;;;4927995;29;20191;-61
2022/09/14 04:11:14;;;;;;;4.80;1.60;;;;;;;;;;4925445;29;20199;-61
2022/09/14 04:13:41;;;;;;;8.17;1.57;;;;;;;;;;4926960;29;20238;-60
2022/09/14 04:16:08;;;;;;;4.50;1.50;;;;;;;;;;4925988;29;20215;-61
2022/09/14 04:18:52;;;;;;;6.47;1.87;;;;;;;;;;4928061;29;20190;-60
2022/09/14 04:21:20;;;;;;;5.03;1.60;;;;;;;;;;4926900;29;20224;-61
2022/09/14 04:23:47;;;;;;;5.83;1.67;;;;;;;;;;4928480;29;20242;-63
2022/09/14 04:26:33;;;;;;;3.67;1.27;;;;;;;;;;4928016;29;20197;-62
2022/09/14 04:29:00;;;;;;;4.23;1.50;;;;;;;;;;4926960;29;20922;-61
2022/09/14 04:31:27;;;;;;;7.53;1.40;;;;;;;;;;4926936;29;20210;-61
2022/09/14 04:33:55;;;;;;;8.83;1.87;;;;;;;;;;4931699;29;20300;-61
2022/09/14 04:36:22;;;;;;;6.00;2.03;;;;;;;;;;4933595;29;20206;-60
2022/09/14 04:38:51;;;;;;;5.93;1.70;;;;;;;;;;4933739;29;20223;-60
2022/09/14 04:41:19;;;;;;;6.20;1.80;;;;;;;;;;4934253;29;20198;-60
2022/09/14 04:43:46;;;;;;;4.93;1.60;;;;;;;;;;4933309;29;20187;-60
2022/09/14 04:46:13;;;;;;;5.23;1.80;;;;;;;;;;4934255;29;20202;-60
2022/09/14 04:48:40;;;;;;;3.50;1.40;;;;;;;;;;4931565;29;20218;-60
2022/09/14 04:51:08;;;;;;;11.10;1.90;;;;;;;;;;4934113;29;20195;-61
2022/09/14 04:53:35;;;;;;;4.60;1.40;;;;;;;;;;4933790;29;20542;-62
2022/09/14 04:56:06;;;;;;;7.53;2.00;;;;;;;;;;4933746;29;20201;-62
2022/09/14 04:58:33;;;;;;;3.83;1.60;;;;;;;;;;4933279;29;20198;-63
2022/09/14 05:01:04;;;;;;;8.20;1.60;;;;;;;;;;4926513;29;20222;-61
2022/09/14 05:03:31;;;;;;;2.33;1.40;;;;;;;;;;4926889;29;20269;-61
2022/09/14 05:06:04;;;;;;;5.67;1.67;;;;;;;;;;4927282;29;20235;-62
2022/09/14 05:08:31;;;;;;;3.67;1.10;;;;;;;;;;4925720;29;20285;-61
2022/09/14 05:10:59;;;;;;;5.83;1.57;;;;;;;;;;4940217;28;20187;-61
2022/09/14 05:13:25;;;;;;;5.63;1.07;;;;;;;;;;4926440;29;20214;-61
2022/09/14 05:15:52;;;;;;;4.00;1.13;;;;;;;;;;4922636;28;20916;-61
2022/09/14 05:18:19;;;;;;;3.90;1.10;;;;;;;;;;5112968;23;20264;-64
2022/09/14 05:20:46;;;;;;;5.37;1.20;;;;;;;;;;4985069;28;20212;-66
2022/09/14 05:23:13;;;;;;;5.27;0.90;;;;;;;;;;4981581;28;20196;-65
2022/09/14 05:25:40;;;;;;;3.97;1.10;;;;;;;;;;4981528;28;20212;-64
2022/09/14 05:28:07;;;;;;;2.93;1.10;;;;;;;;;;4982162;28;20280;-64
2022/09/14 05:30:34;;;;;;;2.80;1.13;;;;;;;;;;4980908;28;20938;-64
2022/09/14 05:33:00;;;;;;;2.63;1.27;;;;;;;;;;4997338;28;20295;-65
2022/09/14 05:35:27;;;;;;;4.43;1.60;;;;;;;;;;4989601;28;20196;-65
2022/09/14 05:37:54;;;;;;;3.73;1.23;;;;;;;;;;4990977;28;20984;-65
2022/09/14 05:40:20;;;;;;;2.90;1.30;;;;;;;;;;4977179;28;20204;-65
2022/09/14 05:42:47;;;;;;;3.73;1.60;;;;;;;;;;4989866;28;20208;-66
2022/09/14 05:45:14;;;;;;;5.40;1.20;;;;;;;;;;4980832;28;20199;-65
2022/09/14 05:47:41;;;;;;;5.73;1.40;;;;;;;;;;4982437;28;20198;-64
2022/09/14 05:50:08;;;;;;;3.17;1.30;;;;;;;;;;4982941;28;20280;-65
2022/09/14 05:52:34;;;;;;;4.17;1.40;;;;;;;;;;4983667;28;20203;-64
2022/09/14 05:55:01;;;;;;;3.33;1.40;;;;;;;;;;4983343;28;20207;-64
2022/09/14 05:57:49;;;;;;;3.50;1.20;;;;;;;;;;4987244;28;20187;-64
2022/09/14 06:00:16;;;;;;;3.03;1.10;;;;;;;;;;4989418;28;20290;-66
2022/09/14 06:02:49;;;;;;;2.93;0.90;;;;;;;;;;4989268;28;20207;-66
2022/09/14 06:05:16;;;;;;;1.70;0.90;;;;;;;;;;4989523;28;20300;-65
2022/09/14 06:07:43;;;;;;;2.60;0.97;;;;;;;;;;4997564;28;20180;-66
2022/09/14 06:10:10;;;;;;;4.87;1.50;;;;;;;;;;4980769;28;20686;-66
2022/09/14 06:12:36;;;;;;;2.53;1.10;;;;;;;;;;4988877;28;20568;-65
2022/09/14 06:15:03;;;;;;;2.40;1.03;;;;;;;;;;4975779;28;20668;-67
2022/09/14 06:17:30;;;;;;;1.63;0.90;;;;;;;;;;4976770;28;20241;-66
2022/09/14 06:19:57;;;;;;;1.23;0.77;;;;;;;;;;4980758;28;20255;-65
2022/09/14 06:22:30;;;;;;;3.87;1.00;;;;;;;;;;4978055;28;20244;-66
2022/09/14 06:24:57;;;;;;;2.97;0.90;;;;;;;;;;4973392;28;20196;-66
2022/09/14 06:27:24;;;;;;;3.20;1.00;;;;;;;;;;4981344;28;20192;-66
2022/09/14 06:29:52;;;;;;;2.47;0.83;;;;;;;;;;4977782;28;20578;-65
2022/09/14 06:32:19;;;;;;;4.67;1.10;;;;;;;;;;4979070;28;20215;-64
2022/09/14 06:34:46;;;;;;;3.77;0.93;;;;;;;;;;4980742;28;20189;-64
2022/09/14 06:37:13;;;;;;;2.50;0.77;;;;;;;;;;4982372;28;20723;-65
2022/09/14 06:39:39;;;;;;;4.77;1.40;;;;;;;;;;4981674;28;20208;-64
2022/09/14 06:42:06;;;;;;;2.20;1.07;;;;;;;;;;4982382;28;20695;-65
2022/09/14 06:44:37;;;;;;;2.80;0.87;;;;;;;;;;4981249;28;20216;-66
2022/09/14 06:47:04;;;;;;;2.77;1.20;;;;;;;;;;4980034;28;20217;-66
2022/09/14 06:49:31;;;;;;;2.50;0.80;;;;;;;;;;4981398;28;20204;-66
2022/09/14 06:51:59;;;;;;;3.37;1.10;;;;;;;;;;4979550;28;20288;-65
2022/09/14 06:54:26;;;;;;;1.87;0.73;;;;;;;;;;4980034;28;20204;-66
2022/09/14 06:56:53;;;;;;;2.77;0.90;;;;;;;;;;4982277;28;20517;-66
2022/09/14 06:59:20;;;;;;;3.93;0.97;;;;;;;;;;4982168;28;20197;-65
2022/09/14 07:01:50;;;;;;;2.83;1.00;;;;;;;;;;4979802;28;20248;-65
2022/09/14 07:04:17;;;;;;;3.37;1.00;;;;;;;;;;4994333;28;20189;-63
2022/09/14 07:06:45;;;;;;;3.40;1.10;;;;;;;;;;4982097;28;20247;-65
2022/09/14 07:09:12;;;;;;;3.07;0.87;;;;;;;;;;4984173;28;20276;-63
2022/09/14 07:11:39;;;;;;;4.20;1.20;;;;;;;;;;4984246;28;20193;-65
2022/09/14 07:14:06;;;;;;;5.93;1.20;;;;;;;;;;4985626;28;20199;-65
2022/09/14 07:16:33;;;;;;;3.10;1.10;;;;;;;;;;4984916;28;20284;-65
2022/09/14 07:19:01;;;;;;;2.70;0.90;;;;;;;;;;4984991;28;20229;-65
2022/09/14 07:21:29;;;;;;;3.60;0.83;;;;;;;;;;4986067;28;20360;-65
2022/09/14 07:23:56;;;;;;;3.37;1.03;;;;;;;;;;4984810;28;20196;-66
2022/09/14 07:26:24;;;;;;;2.37;0.90;;;;;;;;;;4982202;28;20197;-65
2022/09/14 07:28:57;;;;;;;2.23;0.90;;;;;;;;;;4985500;28;20196;-64
2022/09/14 07:31:24;;;;;;;3.40;1.10;;;;;;;;;;4994296;28;20232;-66
2022/09/14 07:33:52;;;;;;;4.07;1.10;;;;;;;;;;4987816;28;20184;-67
2022/09/14 07:36:19;;;;;;;4.80;0.90;;;;;;;;;;5004932;28;21089;-68
2022/09/14 07:38:48;;;;;;;3.40;1.00;;;;;;;;;;5005344;28;20207;-67
2022/09/14 07:41:20;;;;;;;5.63;1.13;;;;;;;;;;5004350;28;20406;-67
2022/09/14 07:43:50;;;;;;;4.53;1.00;;;;;;;;;;4986487;28;20976;-67
2022/09/14 07:46:17;;;;;;;2.80;1.00;;;;;;;;;;5003029;28;20659;-66
2022/09/14 07:48:44;;;;;;;3.73;1.20;;;;;;;;;;5002717;28;20266;-67
2022/09/14 07:51:12;;;;;;;5.97;1.33;;;;;;;;;;5003232;28;20231;-66
2022/09/14 07:53:40;;;;;;;4.70;1.30;;;;;;;;;;5003511;28;20196;-66
2022/09/14 07:56:07;;;;;;;2.67;1.00;;;;;;;;;;5003547;28;20188;-66
2022/09/14 07:58:34;;;;;;;5.03;1.30;;;;;;;;;;5001936;28;20188;-66
2022/09/14 08:01:02;;;;;;;3.57;1.03;;;;;;;;;;5002919;28;20236;-65
2022/09/14 08:03:29;;;;;;;4.67;1.30;;;;;;;;;;5001531;28;20543;-66
2022/09/14 08:05:58;;;;;;;3.97;1.23;;;;;;;;;;5003500;28;20291;-66
2022/09/14 08:08:26;;;;;;;2.87;1.10;;;;;;;;;;5002069;28;20207;-66
2022/09/14 08:10:54;;;;;;;5.83;1.30;;;;;;;;;;5004139;28;20196;-65
2022/09/14 08:13:21;;;;;;;5.67;1.50;;;;;;;;;;5002930;28;20204;-66
2022/09/14 08:15:48;;;;;;;8.53;1.73;;;;;;;;;;5002551;28;20594;-67
2022/09/14 08:18:15;;;;;;;7.30;1.60;;;;;;;;;;5001963;28;20236;-66
2022/09/14 08:20:42;;;;;;;4.27;1.13;;;;;;;;;;5001760;28;20281;-66
2022/09/14 08:23:09;;;;;;;4.53;1.10;;;;;;;;;;5002479;28;20226;-68
2022/09/14 08:25:36;;;;;;;6.27;1.07;;;;;;;;;;5002101;28;20287;-68
2022/09/14 08:28:03;;;;;;;2.67;1.10;;;;;;;;;;4985740;28;20196;-67
2022/09/14 08:30:29;;;;;;;2.67;1.10;;;;;;;;;;5004514;28;20218;-65
2022/09/14 08:32:56;;;;;;;3.97;1.17;;;;;;;;;;4982953;28;20252;-66
2022/09/14 08:35:27;;;;;;;3.10;0.83;;;;;;;;;;4985320;28;20205;-65
2022/09/14 08:38:15;;;;;;;3.17;1.07;;;;;;;;;;4985693;28;20193;-66
2022/09/14 08:40:42;;;;;;;5.47;1.10;;;;;;;;;;4984848;28;20221;-65
2022/09/14 08:43:10;;;;;;;2.60;0.90;;;;;;;;;;4999248;28;20264;-65
2022/09/14 08:45:37;;;;;;;4.27;1.00;;;;;;;;;;4984461;28;20990;-65
2022/09/14 08:48:05;;;;;;;4.03;1.00;;;;;;;;;;4983459;28;20208;-65
2022/09/14 08:50:32;;;;;;;3.00;0.83;;;;;;;;;;4979621;28;20220;-64
2022/09/14 08:53:04;;;;;;;3.63;1.07;;;;;;;;;;4983266;28;20197;-63
2022/09/14 08:55:40;;;;;;;2.37;0.60;;;;;;;;;;4983634;28;20837;-63
2022/09/14 08:58:07;;;;;;;3.10;1.00;;;;;;;;;;4982276;28;20283;-62
2022/09/14 09:00:41;;;;;;;3.40;0.80;;;;;;;;;;4981965;28;20235;-65
2022/09/14 09:03:27;;;;;;;1.50;0.93;;;;;;;;;;4997066;28;20211;-63
2022/09/14 09:05:57;;;;;;;1.63;0.90;;;;;;;;;;4981467;28;20189;-65
2022/09/14 09:08:46;;;;;;;6.57;1.00;;;;;;;;;;4979955;28;20280;-65
2022/09/14 09:11:14;;;;;;;3.27;0.90;;;;;;;;;;4998017;28;20343;-64
2022/09/14 09:13:41;;;;;;;2.80;0.93;;;;;;;;;;4981479;28;20197;-65
2022/09/14 09:16:08;;;;;;;2.37;0.70;;;;;;;;;;4996167;28;20211;-64
2022/09/14 09:18:58;;;;;;;1.40;0.70;;;;;;;;;;4994180;28;20268;-65
2022/09/14 09:21:30;;;;;;;4.23;1.03;;;;;;;;;;4977962;28;20256;-65
2022/09/14 09:24:04;;;;;;;2.67;0.90;;;;;;;;;;4998410;28;20935;-65
2022/09/14 09:26:31;;;;;;;3.23;1.03;;;;;;;;;;4983913;28;20200;-64
2022/09/14 09:28:59;;;;;;;3.00;1.00;;;;;;;;;;4983114;28;20815;-63
2022/09/14 09:31:32;;;;;;;2.90;0.80;;;;;;;;;;4998274;28;20205;-65
2022/09/14 09:34:22;;;;;;;3.63;1.00;;;;;;;;;;5001412;28;20212;-64
2022/09/14 09:36:49;;;;;;;3.00;1.03;;;;;;;;;;5001297;28;20204;-64
2022/09/14 09:39:16;;;;;;;4.87;0.90;;;;;;;;;;5000176;28;20196;-64
2022/09/14 09:41:47;;;;;;;4.60;1.17;;;;;;;;;;4985152;28;20220;-64
2022/09/14 09:44:14;;;;;;;3.40;0.90;;;;;;;;;;5001124;28;20188;-64
2022/09/14 09:46:52;;;;;;;3.00;0.77;;;;;;;;;;5001713;28;20200;-63
2022/09/14 09:49:20;;;;;;;1.47;0.60;;;;;;;;;;4999002;28;20196;-64
2022/09/14 09:51:48;;;;;;;2.13;0.77;;;;;;;;;;5002230;28;20191;-64
2022/09/14 09:54:14;;;;;;;2.27;0.70;;;;;;;;;;5001191;28;20200;-64
2022/09/14 09:56:51;;;;;;;2.90;0.73;;;;;;;;;;5002398;28;20188;-64
2022/09/14 09:59:25;;;;;;;2.93;0.60;;;;;;;;;;5000592;28;20286;-64
2022/09/14 10:01:56;;;;;;;2.33;1.00;;;;;;;;;;5002634;28;20223;-64
2022/09/14 10:04:24;;;;;;;4.03;1.00;;;;;;;;;;5001239;28;20199;-64
2022/09/14 10:06:53;;;;;;;3.03;0.80;;;;;;;;;;5003018;28;20583;-64
2022/09/14 10:09:20;;;;;;;3.83;1.00;;;;;;;;;;5001296;28;20218;-64
2022/09/14 10:11:47;;;;;;;5.13;0.70;;;;;;;;;;5001285;28;20196;-64
2022/09/14 10:14:22;;;;;;;3.17;0.90;;;;;;;;;;5002976;28;21062;-64
2022/09/14 10:16:49;;;;;;;4.13;0.83;;;;;;;;;;5000376;28;20206;-64
2022/09/14 10:19:20;;;;;;;4.67;1.03;;;;;;;;;;4981133;28;20731;-64
2022/09/14 10:22:23;;;;;;;6.53;1.00;;;;;;;;;;4978675;28;20213;-64
2022/09/14 10:24:52;;;;;;;2.70;0.70;;;;;;;;;;4940070;29;20208;-65
2022/09/14 10:27:40;;;;;;;2.43;0.80;;;;;;;;;;4960950;28;20201;-64
2022/09/14 10:30:48;;;;;;;5.03;1.10;;;;;;;;;;4965255;28;20268;-64
2022/09/14 10:33:16;;;;;;;2.37;0.90;;;;;;;;;;4921426;29;20195;-65
2022/09/14 10:35:46;;;;;;;3.80;0.80;;;;;;;;;;4921469;29;20772;-65
2022/09/14 10:38:28;;;;;;;2.23;0.80;;;;;;;;;;4947476;28;20205;-64
2022/09/14 10:41:00;;;;;;;2.77;0.70;;;;;;;;;;4970435;28;20222;-65
2022/09/14 10:43:30;;;;;;;4.07;1.17;;;;;;;;;;4986267;28;20200;-64
2022/09/14 10:45:58;;;;;;;3.07;0.97;;;;;;;;;;4978474;28;20273;-65
2022/09/14 10:48:31;;;;;;;4.60;1.10;;;;;;;;;;4975636;28;20193;-66
2022/09/14 10:51:25;;;;;;;3.97;0.90;;;;;;;;;;4984432;28;20217;-66
2022/09/14 10:53:58;;;;;;;4.63;0.93;;;;;;;;;;4958328;28;20233;-65
2022/09/14 10:56:44;;;;;;;5.17;1.00;;;;;;;;;;4961347;28;20205;-65
2022/09/14 10:59:16;;;;;;;4.27;1.00;;;;;;;;;;4958230;28;20206;-66
2022/09/14 11:01:43;;;;;;;2.97;0.93;;;;;;;;;;4958845;28;21106;-65
2022/09/14 11:04:29;;;;;;;1.97;0.90;;;;;;;;;;4965800;28;20196;-65
2022/09/14 11:06:56;;;;;;;4.23;1.00;;;;;;;;;;4975553;28;20220;-65
2022/09/14 11:09:28;;;;;;;2.93;0.73;;;;;;;;;;4976557;28;20196;-65
2022/09/14 11:12:03;;;;;;;3.93;0.90;;;;;;;;;;4974457;28;20823;-65
2022/09/14 11:14:32;;;;;;;3.53;0.80;;;;;;;;;;4967506;28;20579;-66
2022/09/14 11:16:59;;;;;;;4.30;1.07;;;;;;;;;;4968339;28;20182;-65
2022/09/14 11:19:41;;;;;;;3.17;0.97;;;;;;;;;;5001664;28;20576;-65
2022/09/14 11:22:40;;;;;;;4.23;0.80;;;;;;;;;;5004041;28;20216;-66
2022/09/14 11:25:18;;;;;;;5.73;1.37;;;;;;;;;;5002816;28;20246;-66
2022/09/14 11:27:53;;;;;;;2.83;0.83;;;;;;;;;;5004853;28;20194;-65
2022/09/14 11:30:21;;;;;;;2.93;1.23;;;;;;;;;;5003632;28;20202;-65
2022/09/14 11:32:51;;;;;;;3.30;0.83;;;;;;;;;;5000790;28;20611;-65
2022/09/14 11:35:19;;;;;;;1.97;0.60;;;;;;;;;;5003877;28;20280;-66
2022/09/14 11:37:47;;;;;;;4.00;0.70;;;;;;;;;;4999919;28;20193;-66
2022/09/14 11:40:15;;;;;;;3.47;0.90;;;;;;;;;;4981883;28;20243;-67
2022/09/14 11:42:45;;;;;;;3.87;0.90;;;;;;;;;;4982713;28;20777;-67
2022/09/14 11:45:14;;;;;;;3.27;0.90;;;;;;;;;;4984183;28;20197;-66
2022/09/14 11:47:42;;;;;;;4.57;0.97;;;;;;;;;;4984093;28;20705;-67
2022/09/14 11:50:12;;;;;;;2.97;0.60;;;;;;;;;;4968580;28;20206;-66
2022/09/14 11:52:39;;;;;;;2.63;0.73;;;;;;;;;;4983929;28;20300;-67
2022/09/14 11:55:10;;;;;;;2.37;1.27;;;;;;;;;;4985194;28;20208;-65
2022/09/14 11:57:37;;;;;;;4.63;0.83;;;;;;;;;;4966479;28;20200;-65
2022/09/14 12:00:22;;;;;;;2.40;0.60;;;;;;;;;;4983949;28;20718;-64
2022/09/14 12:02:55;;;;;;;4.07;0.90;;;;;;;;;;4967927;28;20283;-65
2022/09/14 12:05:22;;;;;;;2.47;0.80;;;;;;;;;;4982985;28;20208;-65
2022/09/14 12:07:59;;;;;;;3.37;0.90;;;;;;;;;;4984518;28;20271;-64
2022/09/14 12:10:26;;;;;;;3.70;0.70;;;;;;;;;;4983710;28;20267;-65
2022/09/14 12:12:56;;;;;;;2.87;1.00;;;;;;;;;;4966801;28;20219;-65
2022/09/14 12:15:24;;;;;;;3.13;0.90;;;;;;;;;;4982739;28;20190;-65
2022/09/14 12:17:51;;;;;;;3.20;0.93;;;;;;;;;;4982930;28;20638;-67
2022/09/14 12:20:28;;;;;;;5.00;0.87;;;;;;;;;;4984315;28;20742;-66
2022/09/14 12:23:14;;;;;;;5.17;1.03;;;;;;;;;;4968736;28;20239;-67
2022/09/14 12:25:52;;;;;;;4.17;1.10;;;;;;;;;;4983670;28;20204;-67
2022/09/14 12:28:28;;;;;;;2.97;0.77;;;;;;;;;;4966624;28;20197;-66
2022/09/14 12:30:55;;;;;;;5.70;1.20;;;;;;;;;;4983798;28;20833;-66
2022/09/14 12:33:40;;;;;;;2.87;0.83;;;;;;;;;;4982480;28;20180;-67
2022/09/14 12:36:10;;;;;;;3.40;1.10;;;;;;;;;;4982418;28;20191;-68
2022/09/14 12:38:41;;;;;;;2.07;0.80;;;;;;;;;;4983381;28;20216;-66
2022/09/14 12:41:14;;;;;;;4.23;1.10;;;;;;;;;;4981533;28;20220;-67
2022/09/14 12:43:41;;;;;;;3.73;0.73;;;;;;;;;;4996928;28;20256;-67
2022/09/14 12:46:20;;;;;;;3.63;1.00;;;;;;;;;;4982190;28;20192;-67
2022/09/14 12:48:47;;;;;;;6.43;1.10;;;;;;;;;;4983682;28;20949;-67
2022/09/14 12:51:30;;;;;;;3.67;1.10;;;;;;;;;;4980238;28;20880;-67
2022/09/14 12:53:57;;;;;;;4.13;1.00;;;;;;;;;;4982047;28;20207;-67
2022/09/14 12:56:33;;;;;;;4.90;1.27;;;;;;;;;;4985330;28;20193;-67
2022/09/14 12:59:18;;;;;;;3.93;1.20;;;;;;;;;;4990399;28;20618;-67
2022/09/14 13:01:45;;;;;;;3.37;1.20;;;;;;;;;;4986269;28;20213;-67
2022/09/14 13:04:16;;;;;;;2.87;1.00;;;;;;;;;;4983687;28;20200;-65
2022/09/14 13:06:43;;;;;;;3.47;1.20;;;;;;;;;;4990152;28;20200;-67
2022/09/14 13:09:19;;;;;;;3.10;1.00;;;;;;;;;;4983078;28;20583;-67
2022/09/14 13:11:59;;;;;;;4.63;1.10;;;;;;;;;;4990312;28;20193;-67
2022/09/14 13:14:27;;;;;;;4.03;1.73;;;;;;;;;;4989230;28;20192;-67
2022/09/14 13:17:12;;;;;;;5.20;1.13;;;;;;;;;;4989377;28;20532;-67
2022/09/14 13:19:40;;;;;;;3.17;1.27;;;;;;;;;;4988912;28;20544;-67
2022/09/14 13:22:20;;;;;;;3.53;1.13;;;;;;;;;;4990333;28;20707;-67
2022/09/14 13:24:47;;;;;;;2.60;1.00;;;;;;;;;;4990007;28;20598;-67
2022/09/14 13:27:35;;;;;;;2.90;1.30;;;;;;;;;;4984779;28;20394;-67
2022/09/14 13:30:21;;;;;;;3.67;1.10;;;;;;;;;;4975486;28;20652;-67
2022/09/14 13:32:48;;;;;;;2.80;0.93;;;;;;;;;;4981189;28;20668;-67
2022/09/14 13:35:36;;;;;;;3.20;0.90;;;;;;;;;;4988984;28;20197;-68
2022/09/14 13:38:27;;;;;;;4.03;0.90;;;;;;;;;;4977277;28;20731;-67
2022/09/14 13:40:55;;;;;;;2.67;0.80;;;;;;;;;;4982448;28;20283;-67
2022/09/14 13:43:21;;;;;;;4.33;1.10;;;;;;;;;;4972126;28;20212;-67
2022/09/14 13:45:49;;;;;;;3.53;1.43;;;;;;;;;;4990139;28;20200;-67
2022/09/14 13:48:24;;;;;;;4.67;1.00;;;;;;;;;;4988352;28;20193;-67
2022/09/14 13:50:50;;;;;;;3.17;1.20;;;;;;;;;;4988824;28;20204;-67
2022/09/14 13:53:36;;;;;;;5.53;1.37;;;;;;;;;;4988968;28;20575;-67
2022/09/14 13:56:25;;;;;;;3.30;1.30;;;;;;;;;;4989876;28;20195;-67
2022/09/14 13:59:10;;;;;;;3.77;1.10;;;;;;;;;;4990181;28;20201;-67
2022/09/14 14:01:50;;;;;;;6.70;1.20;;;;;;;;;;4989485;28;20209;-67
2022/09/14 14:04:23;;;;;;;3.63;1.30;;;;;;;;;;4988261;28;20255;-67
2022/09/14 14:07:09;;;;;;;4.20;1.20;;;;;;;;;;4989612;28;20255;-67
2022/09/14 14:09:40;;;;;;;3.07;1.10;;;;;;;;;;4988570;28;20193;-67
2022/09/14 14:12:08;;;;;;;3.10;1.10;;;;;;;;;;4976444;28;20194;-67
2022/09/14 14:14:34;;;;;;;3.57;1.30;;;;;;;;;;4973341;28;20251;-67
2022/09/14 14:17:20;;;;;;;3.33;1.17;;;;;;;;;;4979366;28;20553;-67
2022/09/14 14:19:47;;;;;;;5.47;1.13;;;;;;;;;;4979458;28;20201;-66
2022/09/14 14:22:14;;;;;;;3.80;1.20;;;;;;;;;;4978902;28;20953;-71
2022/09/14 14:24:41;;;;;;;3.37;1.10;;;;;;;;;;4986601;28;20208;-68
2022/09/14 14:27:33;;;;;;;2.97;1.17;;;;;;;;;;4988434;28;20200;-67
2022/09/14 14:30:00;;;;;;;3.67;1.30;;;;;;;;;;4979829;28;20253;-69
2022/09/14 14:32:27;;;;;;;5.90;1.20;;;;;;;;;;4992468;28;20193;-68
2022/09/14 14:34:54;;;;;;;7.97;1.70;;;;;;;;;;4992496;28;20216;-68
2022/09/14 14:37:21;;;;;;;4.00;1.40;;;;;;;;;;4993923;28;20204;-68
2022/09/14 14:39:48;;;;;;;3.60;1.27;;;;;;;;;;4993352;28;20220;-68
2022/09/14 14:42:15;;;;;;;3.37;1.03;;;;;;;;;;4993247;28;20208;-68
2022/09/14 14:44:42;;;;;;;4.03;1.20;;;;;;;;;;4975630;28;20663;-69
2022/09/14 14:47:10;;;;;;;3.90;1.50;;;;;;;;;;4993863;28;20177;-69
2022/09/14 14:49:36;;;;;;;5.83;1.23;;;;;;;;;;4990189;28;20224;-69
2022/09/14 14:52:03;;;;;;;4.83;1.50;;;;;;;;;;4987102;28;20197;-69
2022/09/14 14:54:31;;;;;;;4.60;1.40;;;;;;;;;;4992545;28;20233;-69
2022/09/14 14:56:58;;;;;;;4.23;1.40;;;;;;;;;;4990384;28;20193;-69
2022/09/14 14:59:26;;;;;;;3.20;1.50;;;;;;;;;;4991397;28;20869;-69
2022/09/14 15:01:53;;;;;;;3.37;1.10;;;;;;;;;;4991374;28;20575;-69
2022/09/14 15:04:19;;;;;;;4.67;1.43;;;;;;;;;;4992144;28;20675;-70